sensor_id;sensor_type;location;lat;lon;timestamp;temperature;humidity
41262;DHT22;29629;52.532;13.352;2023-10-09T00:01:42;12.20;99.90
41262;DHT22;29629;52.532;13.352;2023-10-09T00:04:10;12.20;99.90
41262;DHT22;29629;52.532;13.352;2023-10-09T00:06:37;12.20;99.90
41262;DHT22;29629;52.532;13.352;2023-10-09T00:09:04;12.20;99.90
41262;DHT22;29629;52.532;13.352;2023-10-09T00:11:59;12.10;99.90
41262;DHT22;29629;52.532;13.352;2023-10-09T00:14:26;12.10;99.90
41262;DHT22;29629;52.532;13.352;2023-10-09T00:16:56;11.90;99.90
41262;DHT22;29629;52.532;13.352;2023-10-09T00:19:31;11.80;99.90
41262;DHT22;29629;52.532;13.352;2023-10-09T00:21:59;11.90;99.90
41262;DHT22;29629;52.532;13.352;2023-10-09T00:24:32;12.00;99.90
41262;DHT22;29629;52.532;13.352;2023-10-09T00:27:00;12.00;99.90
41262;DHT22;29629;52.532;13.352;2023-10-09T00:29:37;11.90;99.90
41262;DHT22;29629;52.532;13.352;2023-10-09T00:32:10;12.00;99.90
41262;DHT22;29629;52.532;13.352;2023-10-09T00:34:42;12.00;99.90
41262;DHT22;29629;52.532;13.352;2023-10-09T00:37:09;11.90;99.90
41262;DHT22;29629;52.532;13.352;2023-10-09T00:39:42;11.60;99.90
41262;DHT22;29629;52.532;13.352;2023-10-09T00:42:10;11.80;99.90
41262;DHT22;29629;52.532;13.352;2023-10-09T00:44:40;11.90;99.90
41262;DHT22;29629;52.532;13.352;2023-10-09T00:47:08;11.80;99.90
41262;DHT22;29629;52.532;13.352;2023-10-09T00:49:50;11.80;99.90
41262;DHT22;29629;52.532;13.352;2023-10-09T00:52:23;11.80;99.90
41262;DHT22;29629;52.532;13.352;2023-10-09T00:54:58;11.80;99.90
41262;DHT22;29629;52.532;13.352;2023-10-09T00:57:29;11.70;99.90
41262;DHT22;29629;52.532;13.352;2023-10-09T01:00:00;11.80;99.90
41262;DHT22;29629;52.532;13.352;2023-10-09T01:02:32;11.70;99.90
41262;DHT22;29629;52.532;13.352;2023-10-09T01:05:03;11.50;99.90
41262;DHT22;29629;52.532;13.352;2023-10-09T01:07:48;11.40;99.90
41262;DHT22;29629;52.532;13.352;2023-10-09T01:10:23;11.40;99.90
41262;DHT22;29629;52.532;13.352;2023-10-09T01:13:00;11.40;99.90
41262;DHT22;29629;52.532;13.352;2023-10-09T01:15:28;11.50;99.90
41262;DHT22;29629;52.532;13.352;2023-10-09T01:18:09;11.40;99.90
41262;DHT22;29629;52.532;13.352;2023-10-09T01:20:38;11.40;99.90
41262;DHT22;29629;52.532;13.352;2023-10-09T01:23:12;11.30;99.90
41262;DHT22;29629;52.532;13.352;2023-10-09T01:25:39;11.30;99.90
41262;DHT22;29629;52.532;13.352;2023-10-09T01:28:11;11.30;99.90
41262;DHT22;29629;52.532;13.352;2023-10-09T01:30:41;11.20;99.90
41262;DHT22;29629;52.532;13.352;2023-10-09T01:33:09;11.20;99.90
41262;DHT22;29629;52.532;13.352;2023-10-09T01:35:48;11.30;99.90
41262;DHT22;29629;52.532;13.352;2023-10-09T01:38:18;11.20;99.90
41262;DHT22;29629;52.532;13.352;2023-10-09T01:40:56;11.20;99.90
41262;DHT22;29629;52.532;13.352;2023-10-09T01:43:29;11.20;99.90
41262;DHT22;29629;52.532;13.352;2023-10-09T01:46:00;11.20;99.90
41262;DHT22;29629;52.532;13.352;2023-10-09T01:48:29;11.30;99.90
41262;DHT22;29629;52.532;13.352;2023-10-09T01:51:01;11.20;99.90
41262;DHT22;29629;52.532;13.352;2023-10-09T01:53:32;11.20;99.90
41262;DHT22;29629;52.532;13.352;2023-10-09T01:56:08;11.20;99.90
41262;DHT22;29629;52.532;13.352;2023-10-09T01:58:41;11.20;99.90
41262;DHT22;29629;52.532;13.352;2023-10-09T02:01:08;11.30;99.90
41262;DHT22;29629;52.532;13.352;2023-10-09T02:03:35;11.30;99.90
41262;DHT22;29629;52.532;13.352;2023-10-09T02:06:03;11.20;99.90
41262;DHT22;29629;52.532;13.352;2023-10-09T02:08:45;11.10;99.90
41262;DHT22;29629;52.532;13.352;2023-10-09T02:11:15;11.10;99.90
41262;DHT22;29629;52.532;13.352;2023-10-09T02:13:50;11.10;99.90
41262;DHT22;29629;52.532;13.352;2023-10-09T02:16:19;10.90;99.90
41262;DHT22;29629;52.532;13.352;2023-10-09T02:18:54;10.90;99.90
41262;DHT22;29629;52.532;13.352;2023-10-09T02:21:22;11.00;99.90
41262;DHT22;29629;52.532;13.352;2023-10-09T02:24:01;10.90;99.90
41262;DHT22;29629;52.532;13.352;2023-10-09T02:26:31;10.90;99.90
41262;DHT22;29629;52.532;13.352;2023-10-09T02:29:20;10.90;99.90
41262;DHT22;29629;52.532;13.352;2023-10-09T02:31:49;10.90;99.90
41262;DHT22;29629;52.532;13.352;2023-10-09T02:34:20;10.80;99.90
41262;DHT22;29629;52.532;13.352;2023-10-09T02:36:53;10.80;99.90
41262;DHT22;29629;52.532;13.352;2023-10-09T02:39:32;10.70;99.90
41262;DHT22;29629;52.532;13.352;2023-10-09T02:42:08;10.60;99.90
41262;DHT22;29629;52.532;13.352;2023-10-09T02:44:45;10.50;99.90
41262;DHT22;29629;52.532;13.352;2023-10-09T02:47:15;10.60;99.90
41262;DHT22;29629;52.532;13.352;2023-10-09T02:49:46;10.50;99.90
41262;DHT22;29629;52.532;13.352;2023-10-09T02:52:15;10.60;99.90
41262;DHT22;29629;52.532;13.352;2023-10-09T02:54:45;10.70;99.90
41262;DHT22;29629;52.532;13.352;2023-10-09T02:57:13;10.70;99.90
41262;DHT22;29629;52.532;13.352;2023-10-09T02:59:48;10.70;99.90
41262;DHT22;29629;52.532;13.352;2023-10-09T03:02:17;10.70;99.90
41262;DHT22;29629;52.532;13.352;2023-10-09T03:04:44;10.70;99.90
41262;DHT22;29629;52.532;13.352;2023-10-09T03:07:12;10.80;99.90
41262;DHT22;29629;52.532;13.352;2023-10-09T03:09:39;10.80;99.90
41262;DHT22;29629;52.532;13.352;2023-10-09T03:12:08;10.80;99.90
41262;DHT22;29629;52.532;13.352;2023-10-09T03:14:39;10.80;99.90
41262;DHT22;29629;52.532;13.352;2023-10-09T03:17:07;10.80;99.90
41262;DHT22;29629;52.532;13.352;2023-10-09T03:19:37;10.70;99.90
41262;DHT22;29629;52.532;13.352;2023-10-09T03:22:05;10.70;99.90
41262;DHT22;29629;52.532;13.352;2023-10-09T03:24:34;10.60;99.90
41262;DHT22;29629;52.532;13.352;2023-10-09T03:27:02;10.70;99.90
41262;DHT22;29629;52.532;13.352;2023-10-09T03:29:30;10.70;99.90
41262;DHT22;29629;52.532;13.352;2023-10-09T03:31:57;10.70;99.90
41262;DHT22;29629;52.532;13.352;2023-10-09T03:34:25;10.60;99.90
41262;DHT22;29629;52.532;13.352;2023-10-09T03:36:53;10.60;99.90
41262;DHT22;29629;52.532;13.352;2023-10-09T03:39:30;10.70;99.90
41262;DHT22;29629;52.532;13.352;2023-10-09T03:42:06;10.80;99.90
41262;DHT22;29629;52.532;13.352;2023-10-09T03:44:42;10.70;99.90
41262;DHT22;29629;52.532;13.352;2023-10-09T03:47:13;10.80;99.90
41262;DHT22;29629;52.532;13.352;2023-10-09T03:49:42;10.80;99.90
41262;DHT22;29629;52.532;13.352;2023-10-09T03:52:09;10.70;99.90
41262;DHT22;29629;52.532;13.352;2023-10-09T03:54:37;10.70;99.90
41262;DHT22;29629;52.532;13.352;2023-10-09T03:57:04;10.70;99.90
41262;DHT22;29629;52.532;13.352;2023-10-09T03:59:32;10.70;99.90
41262;DHT22;29629;52.532;13.352;2023-10-09T04:02:00;10.80;99.90
41262;DHT22;29629;52.532;13.352;2023-10-09T04:04:30;10.70;99.90
41262;DHT22;29629;52.532;13.352;2023-10-09T04:06:58;10.70;99.90
41262;DHT22;29629;52.532;13.352;2023-10-09T04:09:26;10.70;99.90
41262;DHT22;29629;52.532;13.352;2023-10-09T04:12:05;10.70;99.90
41262;DHT22;29629;52.532;13.352;2023-10-09T04:14:54;10.70;99.90
41262;DHT22;29629;52.532;13.352;2023-10-09T04:17:24;10.80;99.90
41262;DHT22;29629;52.532;13.352;2023-10-09T04:20:00;10.80;99.90
41262;DHT22;29629;52.532;13.352;2023-10-09T04:22:56;10.90;99.90
41262;DHT22;29629;52.532;13.352;2023-10-09T04:25:31;10.90;99.90
41262;DHT22;29629;52.532;13.352;2023-10-09T04:28:08;10.90;99.90
41262;DHT22;29629;52.532;13.352;2023-10-09T04:30:36;10.90;99.90
41262;DHT22;29629;52.532;13.352;2023-10-09T04:33:07;10.90;99.90
41262;DHT22;29629;52.532;13.352;2023-10-09T04:35:53;10.90;99.90
41262;DHT22;29629;52.532;13.352;2023-10-09T04:38:34;10.80;99.90
41262;DHT22;29629;52.532;13.352;2023-10-09T04:41:05;10.80;99.90
41262;DHT22;29629;52.532;13.352;2023-10-09T04:43:33;10.90;99.90
41262;DHT22;29629;52.532;13.352;2023-10-09T04:45:59;10.80;99.90
41262;DHT22;29629;52.532;13.352;2023-10-09T04:48:36;10.90;99.90
41262;DHT22;29629;52.532;13.352;2023-10-09T04:51:04;10.80;99.90
41262;DHT22;29629;52.532;13.352;2023-10-09T04:53:54;10.80;99.90
41262;DHT22;29629;52.532;13.352;2023-10-09T04:56:25;10.80;99.90
41262;DHT22;29629;52.532;13.352;2023-10-09T04:58:57;10.90;99.90
41262;DHT22;29629;52.532;13.352;2023-10-09T05:01:29;10.80;99.90
41262;DHT22;29629;52.532;13.352;2023-10-09T05:04:10;10.80;99.90
41262;DHT22;29629;52.532;13.352;2023-10-09T05:06:54;10.90;99.90
41262;DHT22;29629;52.532;13.352;2023-10-09T05:09:23;10.90;99.90
41262;DHT22;29629;52.532;13.352;2023-10-09T05:11:52;10.90;99.90
41262;DHT22;29629;52.532;13.352;2023-10-09T05:14:41;10.90;99.90
41262;DHT22;29629;52.532;13.352;2023-10-09T05:17:28;10.90;99.90
41262;DHT22;29629;52.532;13.352;2023-10-09T05:19:55;10.90;99.90
41262;DHT22;29629;52.532;13.352;2023-10-09T05:22:42;10.90;99.90
41262;DHT22;29629;52.532;13.352;2023-10-09T05:25:23;10.80;99.90
41262;DHT22;29629;52.532;13.352;2023-10-09T05:28:17;10.80;99.90
41262;DHT22;29629;52.532;13.352;2023-10-09T05:30:56;10.80;99.90
41262;DHT22;29629;52.532;13.352;2023-10-09T05:33:32;10.80;99.90
41262;DHT22;29629;52.532;13.352;2023-10-09T05:36:02;10.80;99.90
41262;DHT22;29629;52.532;13.352;2023-10-09T05:38:43;10.80;99.90
41262;DHT22;29629;52.532;13.352;2023-10-09T05:41:13;10.80;99.90
41262;DHT22;29629;52.532;13.352;2023-10-09T05:44:13;10.80;99.90
41262;DHT22;29629;52.532;13.352;2023-10-09T05:47:09;10.90;99.90
41262;DHT22;29629;52.532;13.352;2023-10-09T05:49:54;10.80;99.90
41262;DHT22;29629;52.532;13.352;2023-10-09T05:52:49;10.80;99.90
41262;DHT22;29629;52.532;13.352;2023-10-09T05:55:33;10.80;99.90
41262;DHT22;29629;52.532;13.352;2023-10-09T05:58:35;10.80;99.90
41262;DHT22;29629;52.532;13.352;2023-10-09T06:01:34;10.90;99.90
41262;DHT22;29629;52.532;13.352;2023-10-09T06:04:21;10.90;99.90
41262;DHT22;29629;52.532;13.352;2023-10-09T06:06:59;10.90;99.90
41262;DHT22;29629;52.532;13.352;2023-10-09T06:09:38;10.90;99.90
41262;DHT22;29629;52.532;13.352;2023-10-09T06:12:18;10.90;99.90
41262;DHT22;29629;52.532;13.352;2023-10-09T06:15:14;10.90;99.90
41262;DHT22;29629;52.532;13.352;2023-10-09T06:18:16;10.90;99.90
41262;DHT22;29629;52.532;13.352;2023-10-09T06:21:03;10.90;99.90
41262;DHT22;29629;52.532;13.352;2023-10-09T06:23:56;10.90;99.90
41262;DHT22;29629;52.532;13.352;2023-10-09T06:26:41;10.90;99.90
41262;DHT22;29629;52.532;13.352;2023-10-09T06:29:17;10.80;99.90
41262;DHT22;29629;52.532;13.352;2023-10-09T06:32:02;10.90;99.90
41262;DHT22;29629;52.532;13.352;2023-10-09T06:34:50;10.90;99.90
41262;DHT22;29629;52.532;13.352;2023-10-09T06:37:18;10.90;99.90
41262;DHT22;29629;52.532;13.352;2023-10-09T06:40:00;10.90;99.90
41262;DHT22;29629;52.532;13.352;2023-10-09T06:43:00;10.90;99.90
41262;DHT22;29629;52.532;13.352;2023-10-09T06:45:35;10.90;99.90
41262;DHT22;29629;52.532;13.352;2023-10-09T06:48:12;11.00;99.90
41262;DHT22;29629;52.532;13.352;2023-10-09T06:50:57;11.00;99.90
41262;DHT22;29629;52.532;13.352;2023-10-09T06:53:30;11.00;99.90
41262;DHT22;29629;52.532;13.352;2023-10-09T06:56:10;11.10;99.90
41262;DHT22;29629;52.532;13.352;2023-10-09T06:58:48;11.10;99.90
41262;DHT22;29629;52.532;13.352;2023-10-09T07:01:14;11.10;99.90
41262;DHT22;29629;52.532;13.352;2023-10-09T07:03:56;11.20;99.90
41262;DHT22;29629;52.532;13.352;2023-10-09T07:06:26;11.20;99.90
41262;DHT22;29629;52.532;13.352;2023-10-09T07:09:07;11.20;99.90
41262;DHT22;29629;52.532;13.352;2023-10-09T07:11:45;11.20;99.90
41262;DHT22;29629;52.532;13.352;2023-10-09T07:14:25;11.30;99.90
41262;DHT22;29629;52.532;13.352;2023-10-09T07:17:10;11.30;99.90
41262;DHT22;29629;52.532;13.352;2023-10-09T07:19:49;11.40;99.90
41262;DHT22;29629;52.532;13.352;2023-10-09T07:22:39;11.40;99.90
41262;DHT22;29629;52.532;13.352;2023-10-09T07:25:21;11.30;99.90
41262;DHT22;29629;52.532;13.352;2023-10-09T07:28:07;11.40;99.90
41262;DHT22;29629;52.532;13.352;2023-10-09T07:30:44;11.40;99.90
41262;DHT22;29629;52.532;13.352;2023-10-09T07:33:11;11.40;99.90
41262;DHT22;29629;52.532;13.352;2023-10-09T07:35:46;11.50;99.90
41262;DHT22;29629;52.532;13.352;2023-10-09T07:38:16;11.50;99.90
41262;DHT22;29629;52.532;13.352;2023-10-09T07:40:47;11.50;99.90
41262;DHT22;29629;52.532;13.352;2023-10-09T07:43:22;11.50;99.90
41262;DHT22;29629;52.532;13.352;2023-10-09T07:45:53;11.50;99.90
41262;DHT22;29629;52.532;13.352;2023-10-09T07:48:37;11.50;99.90
41262;DHT22;29629;52.532;13.352;2023-10-09T07:51:15;11.50;99.90
41262;DHT22;29629;52.532;13.352;2023-10-09T07:53:42;11.30;99.90
41262;DHT22;29629;52.532;13.352;2023-10-09T07:56:10;11.40;99.90
41262;DHT22;29629;52.532;13.352;2023-10-09T07:58:39;11.40;99.90
41262;DHT22;29629;52.532;13.352;2023-10-09T08:01:13;11.40;99.90
41262;DHT22;29629;52.532;13.352;2023-10-09T08:03:48;11.50;99.90
41262;DHT22;29629;52.532;13.352;2023-10-09T08:06:24;11.40;99.90
41262;DHT22;29629;52.532;13.352;2023-10-09T08:09:08;11.50;99.90
41262;DHT22;29629;52.532;13.352;2023-10-09T08:11:46;11.40;99.90
41262;DHT22;29629;52.532;13.352;2023-10-09T08:14:31;11.30;99.90
41262;DHT22;29629;52.532;13.352;2023-10-09T08:17:11;11.40;99.90
41262;DHT22;29629;52.532;13.352;2023-10-09T08:19:42;11.40;99.90
41262;DHT22;29629;52.532;13.352;2023-10-09T08:22:29;11.50;99.90
41262;DHT22;29629;52.532;13.352;2023-10-09T08:25:13;11.50;99.90
41262;DHT22;29629;52.532;13.352;2023-10-09T08:27:53;11.50;99.90
41262;DHT22;29629;52.532;13.352;2023-10-09T08:30:20;11.50;99.90
41262;DHT22;29629;52.532;13.352;2023-10-09T08:33:09;11.50;99.90
41262;DHT22;29629;52.532;13.352;2023-10-09T08:35:54;11.60;99.90
41262;DHT22;29629;52.532;13.352;2023-10-09T08:38:28;11.60;99.90
41262;DHT22;29629;52.532;13.352;2023-10-09T08:41:06;11.60;99.90
41262;DHT22;29629;52.532;13.352;2023-10-09T08:43:47;11.50;99.90
41262;DHT22;29629;52.532;13.352;2023-10-09T08:46:18;11.60;99.90
41262;DHT22;29629;52.532;13.352;2023-10-09T08:48:46;11.60;99.90
41262;DHT22;29629;52.532;13.352;2023-10-09T08:51:13;11.60;99.90
41262;DHT22;29629;52.532;13.352;2023-10-09T08:53:43;11.70;99.90
41262;DHT22;29629;52.532;13.352;2023-10-09T08:56:12;11.70;99.90
41262;DHT22;29629;52.532;13.352;2023-10-09T08:58:41;11.70;99.90
41262;DHT22;29629;52.532;13.352;2023-10-09T09:01:08;11.60;99.90
41262;DHT22;29629;52.532;13.352;2023-10-09T09:03:41;11.70;99.90
41262;DHT22;29629;52.532;13.352;2023-10-09T09:06:09;11.70;99.90
41262;DHT22;29629;52.532;13.352;2023-10-09T09:08:36;11.70;99.90
41262;DHT22;29629;52.532;13.352;2023-10-09T09:11:08;11.70;99.90
41262;DHT22;29629;52.532;13.352;2023-10-09T09:13:41;11.70;99.90
41262;DHT22;29629;52.532;13.352;2023-10-09T09:16:18;11.70;99.90
41262;DHT22;29629;52.532;13.352;2023-10-09T09:18:53;11.80;99.90
41262;DHT22;29629;52.532;13.352;2023-10-09T09:21:26;11.80;99.90
41262;DHT22;29629;52.532;13.352;2023-10-09T09:23:55;11.80;99.90
41262;DHT22;29629;52.532;13.352;2023-10-09T09:26:38;11.80;99.90
41262;DHT22;29629;52.532;13.352;2023-10-09T09:29:11;11.90;99.90
41262;DHT22;29629;52.532;13.352;2023-10-09T09:31:38;11.90;99.90
41262;DHT22;29629;52.532;13.352;2023-10-09T09:34:07;11.90;99.90
41262;DHT22;29629;52.532;13.352;2023-10-09T09:36:53;12.00;99.90
41262;DHT22;29629;52.532;13.352;2023-10-09T09:39:25;12.00;99.90
41262;DHT22;29629;52.532;13.352;2023-10-09T09:41:58;12.00;99.90
41262;DHT22;29629;52.532;13.352;2023-10-09T09:44:33;12.00;99.90
41262;DHT22;29629;52.532;13.352;2023-10-09T09:47:09;12.00;99.90
41262;DHT22;29629;52.532;13.352;2023-10-09T09:49:38;11.90;99.90
41262;DHT22;29629;52.532;13.352;2023-10-09T09:52:08;11.80;99.90
41262;DHT22;29629;52.532;13.352;2023-10-09T09:54:37;11.90;99.90
41262;DHT22;29629;52.532;13.352;2023-10-09T09:57:07;11.80;99.90
41262;DHT22;29629;52.532;13.352;2023-10-09T09:59:39;11.80;99.90
41262;DHT22;29629;52.532;13.352;2023-10-09T10:02:22;11.80;99.90
41262;DHT22;29629;52.532;13.352;2023-10-09T10:04:54;11.80;99.90
41262;DHT22;29629;52.532;13.352;2023-10-09T10:07:24;11.80;99.90
41262;DHT22;29629;52.532;13.352;2023-10-09T10:09:51;11.80;99.90
41262;DHT22;29629;52.532;13.352;2023-10-09T10:12:52;11.80;99.90
41262;DHT22;29629;52.532;13.352;2023-10-09T10:16:00;11.80;99.90
41262;DHT22;29629;52.532;13.352;2023-10-09T10:18:53;11.80;99.90
41262;DHT22;29629;52.532;13.352;2023-10-09T10:21:25;11.90;99.90
41262;DHT22;29629;52.532;13.352;2023-10-09T10:27:19;11.90;99.90
41262;DHT22;29629;52.532;13.352;2023-10-09T10:32:59;12.10;99.90
41262;DHT22;29629;52.532;13.352;2023-10-09T10:35:35;12.10;99.90
41262;DHT22;29629;52.532;13.352;2023-10-09T10:38:26;12.10;99.90
41262;DHT22;29629;52.532;13.352;2023-10-09T10:41:08;12.10;99.90
41262;DHT22;29629;52.532;13.352;2023-10-09T10:43:37;12.00;99.90
41262;DHT22;29629;52.532;13.352;2023-10-09T10:46:21;12.00;99.90
41262;DHT22;29629;52.532;13.352;2023-10-09T10:49:00;12.00;99.90
41262;DHT22;29629;52.532;13.352;2023-10-09T10:51:41;12.00;99.90
41262;DHT22;29629;52.532;13.352;2023-10-09T10:54:20;12.10;99.90
41262;DHT22;29629;52.532;13.352;2023-10-09T10:57:18;12.20;99.90
41262;DHT22;29629;52.532;13.352;2023-10-09T10:59:59;12.30;99.90
41262;DHT22;29629;52.532;13.352;2023-10-09T11:02:43;12.30;99.90
41262;DHT22;29629;52.532;13.352;2023-10-09T11:05:10;12.40;99.90
41262;DHT22;29629;52.532;13.352;2023-10-09T11:07:51;12.30;99.90
41262;DHT22;29629;52.532;13.352;2023-10-09T11:10:22;12.30;99.90
41262;DHT22;29629;52.532;13.352;2023-10-09T11:12:57;12.40;99.90
41262;DHT22;29629;52.532;13.352;2023-10-09T11:15:41;12.40;99.90
41262;DHT22;29629;52.532;13.352;2023-10-09T11:18:13;12.60;99.90
41262;DHT22;29629;52.532;13.352;2023-10-09T11:20:49;12.70;99.90
41262;DHT22;29629;52.532;13.352;2023-10-09T11:23:44;12.80;99.90
41262;DHT22;29629;52.532;13.352;2023-10-09T11:26:24;12.90;99.90
41262;DHT22;29629;52.532;13.352;2023-10-09T11:29:09;12.90;99.90
41262;DHT22;29629;52.532;13.352;2023-10-09T11:31:57;12.90;99.90
41262;DHT22;29629;52.532;13.352;2023-10-09T11:34:25;12.80;99.90
41262;DHT22;29629;52.532;13.352;2023-10-09T11:37:01;12.70;99.90
41262;DHT22;29629;52.532;13.352;2023-10-09T11:39:29;12.80;99.90
41262;DHT22;29629;52.532;13.352;2023-10-09T11:42:05;13.10;99.90
41262;DHT22;29629;52.532;13.352;2023-10-09T11:44:36;13.20;99.90
41262;DHT22;29629;52.532;13.352;2023-10-09T11:47:05;13.30;99.90
41262;DHT22;29629;52.532;13.352;2023-10-09T11:49:49;13.60;99.90
41262;DHT22;29629;52.532;13.352;2023-10-09T11:52:23;13.80;99.90
41262;DHT22;29629;52.532;13.352;2023-10-09T11:55:02;13.80;99.90
41262;DHT22;29629;52.532;13.352;2023-10-09T11:57:28;14.00;99.90
41262;DHT22;29629;52.532;13.352;2023-10-09T11:59:57;14.10;99.90
41262;DHT22;29629;52.532;13.352;2023-10-09T12:02:25;14.80;99.90
41262;DHT22;29629;52.532;13.352;2023-10-09T12:04:53;15.40;99.90
41262;DHT22;29629;52.532;13.352;2023-10-09T12:07:23;15.00;99.90
41262;DHT22;29629;52.532;13.352;2023-10-09T12:09:51;14.40;99.90
41262;DHT22;29629;52.532;13.352;2023-10-09T12:12:21;13.90;99.90
41262;DHT22;29629;52.532;13.352;2023-10-09T12:14:52;13.60;99.90
41262;DHT22;29629;52.532;13.352;2023-10-09T12:17:19;13.50;99.90
41262;DHT22;29629;52.532;13.352;2023-10-09T12:19:50;13.40;99.90
41262;DHT22;29629;52.532;13.352;2023-10-09T12:22:17;13.30;99.90
41262;DHT22;29629;52.532;13.352;2023-10-09T12:24:48;13.20;99.90
41262;DHT22;29629;52.532;13.352;2023-10-09T12:27:15;13.20;99.90
41262;DHT22;29629;52.532;13.352;2023-10-09T12:29:46;13.10;99.90
41262;DHT22;29629;52.532;13.352;2023-10-09T12:32:13;13.00;99.90
41262;DHT22;29629;52.532;13.352;2023-10-09T12:34:45;13.00;99.90
41262;DHT22;29629;52.532;13.352;2023-10-09T12:37:15;13.00;99.90
41262;DHT22;29629;52.532;13.352;2023-10-09T12:39:48;13.20;99.90
41262;DHT22;29629;52.532;13.352;2023-10-09T12:42:21;13.30;99.90
41262;DHT22;29629;52.532;13.352;2023-10-09T12:44:48;13.30;99.90
41262;DHT22;29629;52.532;13.352;2023-10-09T12:47:15;13.30;99.90
41262;DHT22;29629;52.532;13.352;2023-10-09T12:49:44;13.20;99.90
41262;DHT22;29629;52.532;13.352;2023-10-09T12:52:11;13.20;99.90
41262;DHT22;29629;52.532;13.352;2023-10-09T12:54:41;13.10;99.90
41262;DHT22;29629;52.532;13.352;2023-10-09T12:57:10;13.10;99.90
41262;DHT22;29629;52.532;13.352;2023-10-09T12:59:39;13.10;99.90
41262;DHT22;29629;52.532;13.352;2023-10-09T13:02:11;13.00;99.90
41262;DHT22;29629;52.532;13.352;2023-10-09T13:04:38;12.90;99.90
41262;DHT22;29629;52.532;13.352;2023-10-09T13:07:07;12.80;99.90
41262;DHT22;29629;52.532;13.352;2023-10-09T13:09:34;12.90;99.90
41262;DHT22;29629;52.532;13.352;2023-10-09T13:12:09;12.80;99.90
41262;DHT22;29629;52.532;13.352;2023-10-09T13:14:43;12.80;99.90
41262;DHT22;29629;52.532;13.352;2023-10-09T13:17:10;12.80;99.90
41262;DHT22;29629;52.532;13.352;2023-10-09T13:19:39;12.70;99.90
41262;DHT22;29629;52.532;13.352;2023-10-09T13:22:05;12.60;99.90
41262;DHT22;29629;52.532;13.352;2023-10-09T13:24:38;12.60;99.90
41262;DHT22;29629;52.532;13.352;2023-10-09T13:27:05;12.50;99.90
41262;DHT22;29629;52.532;13.352;2023-10-09T13:29:37;12.50;99.90
41262;DHT22;29629;52.532;13.352;2023-10-09T13:32:06;12.50;99.90
41262;DHT22;29629;52.532;13.352;2023-10-09T13:34:39;12.40;99.90
41262;DHT22;29629;52.532;13.352;2023-10-09T13:37:10;12.40;99.90
41262;DHT22;29629;52.532;13.352;2023-10-09T13:39:39;12.30;99.90
41262;DHT22;29629;52.532;13.352;2023-10-09T13:42:17;12.30;99.90
41262;DHT22;29629;52.532;13.352;2023-10-09T13:44:46;12.10;99.90
41262;DHT22;29629;52.532;13.352;2023-10-09T13:47:14;12.20;99.90
41262;DHT22;29629;52.532;13.352;2023-10-09T13:49:46;12.30;99.90
41262;DHT22;29629;52.532;13.352;2023-10-09T13:52:16;12.30;99.90
41262;DHT22;29629;52.532;13.352;2023-10-09T13:54:44;12.30;99.90
41262;DHT22;29629;52.532;13.352;2023-10-09T13:57:15;12.30;99.90
41262;DHT22;29629;52.532;13.352;2023-10-09T13:59:42;12.30;99.90
41262;DHT22;29629;52.532;13.352;2023-10-09T14:02:16;12.40;99.90
41262;DHT22;29629;52.532;13.352;2023-10-09T14:04:47;12.30;99.90
41262;DHT22;29629;52.532;13.352;2023-10-09T14:07:14;12.40;99.90
41262;DHT22;29629;52.532;13.352;2023-10-09T14:09:43;12.30;99.90
41262;DHT22;29629;52.532;13.352;2023-10-09T14:12:21;12.30;99.90
41262;DHT22;29629;52.532;13.352;2023-10-09T14:14:51;12.40;99.90
41262;DHT22;29629;52.532;13.352;2023-10-09T14:17:22;12.40;99.90
41262;DHT22;29629;52.532;13.352;2023-10-09T14:19:54;12.40;99.90
41262;DHT22;29629;52.532;13.352;2023-10-09T14:22:26;12.40;99.90
41262;DHT22;29629;52.532;13.352;2023-10-09T14:24:55;12.40;99.90
41262;DHT22;29629;52.532;13.352;2023-10-09T14:27:23;12.40;99.90
41262;DHT22;29629;52.532;13.352;2023-10-09T14:29:53;12.40;99.90
41262;DHT22;29629;52.532;13.352;2023-10-09T14:32:23;12.50;99.90
41262;DHT22;29629;52.532;13.352;2023-10-09T14:34:54;12.40;99.90
41262;DHT22;29629;52.532;13.352;2023-10-09T14:37:26;12.40;99.90
41262;DHT22;29629;52.532;13.352;2023-10-09T14:39:53;12.50;99.90
41262;DHT22;29629;52.532;13.352;2023-10-09T14:42:21;12.40;99.90
41262;DHT22;29629;52.532;13.352;2023-10-09T14:44:50;12.50;99.90
41262;DHT22;29629;52.532;13.352;2023-10-09T14:47:17;12.40;99.90
41262;DHT22;29629;52.532;13.352;2023-10-09T14:49:47;12.50;99.90
41262;DHT22;29629;52.532;13.352;2023-10-09T14:52:14;12.50;99.90
41262;DHT22;29629;52.532;13.352;2023-10-09T14:54:44;12.50;99.90
41262;DHT22;29629;52.532;13.352;2023-10-09T14:57:11;12.50;99.90
41262;DHT22;29629;52.532;13.352;2023-10-09T14:59:39;12.50;99.90
41262;DHT22;29629;52.532;13.352;2023-10-09T15:02:08;12.40;99.90
41262;DHT22;29629;52.532;13.352;2023-10-09T15:04:35;12.40;99.90
41262;DHT22;29629;52.532;13.352;2023-10-09T15:07:04;12.40;99.90
41262;DHT22;29629;52.532;13.352;2023-10-09T15:09:32;12.40;99.90
41262;DHT22;29629;52.532;13.352;2023-10-09T15:12:01;12.20;99.90
41262;DHT22;29629;52.532;13.352;2023-10-09T15:14:29;12.30;99.90
41262;DHT22;29629;52.532;13.352;2023-10-09T15:16:57;12.30;99.90
41262;DHT22;29629;52.532;13.352;2023-10-09T15:19:24;12.30;99.90
41262;DHT22;29629;52.532;13.352;2023-10-09T15:21:55;12.40;99.90
41262;DHT22;29629;52.532;13.352;2023-10-09T15:24:23;12.40;99.90
41262;DHT22;29629;52.532;13.352;2023-10-09T15:26:51;12.30;99.90
41262;DHT22;29629;52.532;13.352;2023-10-09T15:29:19;12.40;99.90
41262;DHT22;29629;52.532;13.352;2023-10-09T15:31:48;12.40;99.90
41262;DHT22;29629;52.532;13.352;2023-10-09T15:34:16;12.40;99.90
41262;DHT22;29629;52.532;13.352;2023-10-09T15:36:44;12.30;99.90
41262;DHT22;29629;52.532;13.352;2023-10-09T15:39:12;12.30;99.90
41262;DHT22;29629;52.532;13.352;2023-10-09T15:41:41;12.30;99.90
41262;DHT22;29629;52.532;13.352;2023-10-09T15:44:07;12.30;99.90
41262;DHT22;29629;52.532;13.352;2023-10-09T15:46:34;12.40;99.90
41262;DHT22;29629;52.532;13.352;2023-10-09T15:49:01;12.40;99.90
41262;DHT22;29629;52.532;13.352;2023-10-09T15:51:29;12.30;99.90
41262;DHT22;29629;52.532;13.352;2023-10-09T15:53:56;12.40;99.90
41262;DHT22;29629;52.532;13.352;2023-10-09T15:56:23;12.30;99.90
41262;DHT22;29629;52.532;13.352;2023-10-09T15:58:53;12.30;99.90
41262;DHT22;29629;52.532;13.352;2023-10-09T16:01:22;12.30;99.90
41262;DHT22;29629;52.532;13.352;2023-10-09T16:03:49;12.30;99.90